Airfield :
LOGIN :

Register | Disclaimer

   EN    FR    IT 

 










Legend :    VFR   Marginal VFR   IFR   Intensive IFR   Very Intensive IFR
Visi :
Ceiling :
>= 8 km
>= 3000ft
5 to 8 km
1000 to 3000 ft
1500m to 5 km
500 to 1000 ft
800 to 1500m
200 to 500 ft
< 800m
< 200 ft
Symbols :   Thunderstorms  Fog  Heavy snow  Heavy precipitations  Wind > 20 kt
SIGMETs :     Misc.  Thunderstorms  Icing  Turbulence  Mountain Waves  Volcanic Ashes







- Airport Elevation : 46 ft
- IATA code : SNN


EINN - Shannon

CURRENT METAR :
  • 242100Z 29008KT 9999 FEW024 SCT040 08/04 Q1035 NOSIG

EXPIRED METARs :
  • 242030Z 28010KT 9999 FEW024 08/05 Q1035 NOSIG
  • 242000Z 28005KT 9999 FEW024 08/05 Q1035 NOSIG
  • 241930Z 28008KT 9999 FEW024 SCT040 08/04 Q1035 NOSIG
  • 241900Z 28011KT 9999 FEW028 SCT042 09/05 Q1034 NOSIG
  • 241830Z 29010KT 9999 FEW028 SCT042 09/04 Q1034 NOSIG
  • 241800Z 29012KT 9999 FEW024 09/04 Q1034 NOSIG

TAF TAF EINN
Valid from the 24 at 18:00 until the 25 at 18:00 UTC


241700Z 2418/2518 29014KT 9999 FEW025 BKN040
BECMG 2420/2423 30006KT
BECMG 2501/2503 VRB03KT
PROB30
TEMPO 2505/2508 4000 BR
BECMG 2509/2511 31005KT
No reported NOTAMs for that airfield.



MET'MAP, your aeronautical weather chart ! - Copyright ORBIFLY December 2007 - Disclaimer

ORBIFLY MET'MAP TEAM :

Programming & Development : Alexandra Zaïnal
Concept & Development : Baudouin d'Aumeries
Co-Development & Prog : Marc-Olivier Méhu
Technical & hardware support : Manuel Goepfert

Contact : metmap@orbifly.com




SOURCES & CREDITS :

   NOAA